Maryland — A8DP2 — position and weather

sailwx.info

Track history (hours):
 
Tides and Currents Weather Stations Pressure Air Temp Water Temp Dewpoint Dewpoint Depression Visibility Wind Speed Wind Dir Waves Ship Positions

Maryland

Last reported at 2018-Feb-17 11:02 UTC. Time now 2018-Feb-19 11:29 UTC.
Position N 45°38' E 036°45'.

Length 179 m; draft 6 m.

Type: Cargo ship. MMSI: 636012131.

Date/timePositionNaut miles runAvg speedWind from/ knotsBaromVisibWave heightAir tempDewpointWater temp
2018-Feb-17 11:02N 45°38' E 036°45'011.2
2018-Feb-17 11:00N 45°38' E 036°45'611.5
2018-Feb-17 10:27N 45°32' E 036°44'511.3
2018-Feb-17 10:00N 45°27' E 036°42'4 8.5
2018-Feb-17 09:30N 45°23' E 036°40'4 8.2
2018-Feb-17 09:01N 45°20' E 036°36'5 9.2
2018-Feb-17 08:30N 45°18' E 036°30'4 8.6
2018-Feb-17 08:01N 45°14' E 036°28'3 5.7
2018-Feb-17 07:30N 45°11' E 036°28'3 4.9
2018-Feb-17 06:56N 45°09' E 036°29'2 4.6
2018-Feb-17 06:24N 45°07' E 036°30'2 4.6
2018-Feb-17 06:01N 45°05' E 036°30'  
2018-Feb-14 18:33N 40°54' E 028°56'211.7
2018-Feb-14 18:25N 40°53' E 028°55'  
Track history (hours):
 
Tides and Currents Weather Stations Pressure Air Temp Water Temp Dewpoint Dewpoint Depression Visibility Wind Speed Wind Dir Waves Ship Positions

Maryland

Last reported at 2018-Feb-17 11:02 UTC. Time now 2018-Feb-19 11:29 UTC.
Position N 45°38' E 036°45'.

Length 179 m; draft 6 m.

Type: Cargo ship. MMSI: 636012131.

Date/timePositionNaut miles runAvg speedWind from/ knotsBaromVisibWave heightAir tempDewpointWater temp
2018-Feb-17 11:02N 45°38' E 036°45'011.2
2018-Feb-17 11:00N 45°38' E 036°45'611.5
2018-Feb-17 10:27N 45°32' E 036°44'511.3
2018-Feb-17 10:00N 45°27' E 036°42'4 8.5
2018-Feb-17 09:30N 45°23' E 036°40'4 8.2
2018-Feb-17 09:01N 45°20' E 036°36'5 9.2
2018-Feb-17 08:30N 45°18' E 036°30'4 8.6
2018-Feb-17 08:01N 45°14' E 036°28'3 5.7
2018-Feb-17 07:30N 45°11' E 036°28'3 4.9
2018-Feb-17 06:56N 45°09' E 036°29'2 4.6
2018-Feb-17 06:24N 45°07' E 036°30'2 4.6
2018-Feb-17 06:01N 45°05' E 036°30'  
2018-Feb-14 18:33N 40°54' E 028°56'211.7
2018-Feb-14 18:25N 40°53' E 028°55'  

Dump ship's entire track history